Weather at Coahuila Strip

Public forecast

Using degrees Celsius for public forecast. Weather courtesy of forecast.io.

Closest aviation weather report (METAR) to Coahuila Strip

Closest report is General Rodolfo Sánchez Taboada International Airport, 25.4 nm (47.1 km) NNW. Retrieved 2021/08/06 02:42 UTC (30 minutes ago):

MMML 060242Z 13011KT 10SM FEW200 35/21 A2972 RMK SLP064 57003 927 8/008

Closest aviation forecast (TAF) to Coahuila Strip

Forecast is more than 6 hours old.

Closest forecast is General Rodolfo Sánchez Taboada International Airport, 25.4 nm (47.1 km) NNW. Retrieved 2021/08/05 18:42 UTC (9 hours ago):

TAF MMML 051641Z 0518/0618 14015KT P6SM SKC BECMG 0520/0521 14020KT SCT040 FM060200 14008KT P6SM SKC BECMG 0607/0608 14006KT FM061500 14015KT P6SM SKC